Disclaimer

Please do not use the information listed here in-flight or in-navigation, as they are not provided to us by the airports but are provided by volunteers, so they might be outdated.

Search


Regions


Airport information page

Radio informations:
Tower (TWR) - 118.5 MHz
RDO - 126.9 MHz

Airport informations:
Latitude: 45° 54' 57.81" S
Longitude: 071° 41' 22.11" W
Elevation: 1722 feet - 525 meters
Operating hours: Remarks
Operating agency: Civil government, landing fees and diplomatic clearance may be required
Timezone: UTC-4(-3DT)
Fuel: Jet A1, without icing nhibitor.

Runway information:
09/27 - 8205 x 148 feet< - >2501 x 45 meters

Recent METARs:
SCBA 202000Z 31039G51KT 9999 FEW030 SCT200 11/03 Q0995
SCBA 202100Z 31034G48KT 9999 FEW030 SCT200 11/03 Q0995
SCBA 202100Z 31034G48KT 9999 FEW030 SCT200 11/03 Q0995

Airport on the map: